KLFT METAR and TAF | Updated Today

KLFT METAR

Lafayette Regional Airport

Observation time: 38 min. ago

KLFT 301753Z 17005KT 10SM CLR 21/03 A3021 RMK AO2 SLP230 T02060033 10206 20044 58008

Need help? Read our tutorial on how to read METARs or read the parsed version below.

Lafayette Regional Airport (KLFT) METAR

  • Weather conditions on Tue, 30 Nov 2021 17:53:00 +0000 (38 min. ago):
  • Present conditions: Dry
  • Clouds: Clear skies
  • Visibility: 16093 meters
  • Wind: 170 degrees at 5 knots
  • Temperature: 21 celsius
  • Dew point: 3 celsius
  • Pressure: 30.21 inHg
  • Remarks: AO2 SLP230 T02060033 10206 20044 58008


Useful to know...

KLFT TAF

Lafayette Regional Airport

KLFT 301732Z 3018/0118 18005KT P6SM SKC FM010100 00000KT P6SM SCT250 TEMPO 0110/0112 3SM BR FM011500 19005KT P6SM FEW250
Observation time: 59 min. ago
Need help? Read our tutorial on how to read TAFs or read the parsed version below.

Parsed version of TAF for Lafayette Regional Airport (KLFT)

  • From 30 November at 18:00 UTC, to day 01 of the month at 18:00 UTC
  • Clouds: No significant changes expected
  • Wind: 180 degrees at 5
  • From day 1 of the month at 01:00 UTC
  • Clouds: Scattered at 7620 meters
  • Expected to arise temporarily, from 01 November at 10:00 UTC, to day 01 of the month at 12:00 UTC
  • Visibility: 4828 meters
  • Other: Mist
  • From day 1 of the month at 15:00 UTC
  • Clouds: A few at 7620 meters
  • Wind: 190 degrees at 5